sensor_id;sensor_type;location;lat;lon;timestamp;temperature;humidity
2497;DHT22;1259;48.306;14.374;2022-09-20T00:01:46;8.50;99.90
2497;DHT22;1259;48.306;14.374;2022-09-20T00:04:13;8.60;99.90
2497;DHT22;1259;48.306;14.374;2022-09-20T00:06:40;8.50;99.90
2497;DHT22;1259;48.306;14.374;2022-09-20T00:09:07;8.60;99.90
2497;DHT22;1259;48.306;14.374;2022-09-20T00:11:34;8.60;99.90
2497;DHT22;1259;48.306;14.374;2022-09-20T00:14:03;8.50;99.90
2497;DHT22;1259;48.306;14.374;2022-09-20T00:16:35;8.50;99.90
2497;DHT22;1259;48.306;14.374;2022-09-20T00:19:04;8.50;99.90
2497;DHT22;1259;48.306;14.374;2022-09-20T00:21:33;8.50;99.90
2497;DHT22;1259;48.306;14.374;2022-09-20T00:24:01;8.40;99.90
2497;DHT22;1259;48.306;14.374;2022-09-20T00:26:28;8.40;99.90
2497;DHT22;1259;48.306;14.374;2022-09-20T00:28:56;8.40;99.90
2497;DHT22;1259;48.306;14.374;2022-09-20T00:31:23;8.40;99.90
2497;DHT22;1259;48.306;14.374;2022-09-20T00:33:53;8.40;99.90
2497;DHT22;1259;48.306;14.374;2022-09-20T00:36:53;8.40;99.90
2497;DHT22;1259;48.306;14.374;2022-09-20T00:39:20;8.40;99.90
2497;DHT22;1259;48.306;14.374;2022-09-20T00:41:47;8.40;99.90
2497;DHT22;1259;48.306;14.374;2022-09-20T00:44:46;8.40;99.90
2497;DHT22;1259;48.306;14.374;2022-09-20T00:47:25;8.40;99.90
2497;DHT22;1259;48.306;14.374;2022-09-20T00:49:59;8.40;99.90
2497;DHT22;1259;48.306;14.374;2022-09-20T00:52:28;8.40;99.90
2497;DHT22;1259;48.306;14.374;2022-09-20T00:54:56;8.40;99.90
2497;DHT22;1259;48.306;14.374;2022-09-20T00:57:24;8.40;99.90
2497;DHT22;1259;48.306;14.374;2022-09-20T00:59:52;8.40;99.90
2497;DHT22;1259;48.306;14.374;2022-09-20T01:02:26;8.40;99.90
2497;DHT22;1259;48.306;14.374;2022-09-20T01:04:54;8.40;99.90
2497;DHT22;1259;48.306;14.374;2022-09-20T01:07:22;8.50;99.90
2497;DHT22;1259;48.306;14.374;2022-09-20T01:09:51;8.50;99.90
2497;DHT22;1259;48.306;14.374;2022-09-20T01:12:21;8.40;99.90
2497;DHT22;1259;48.306;14.374;2022-09-20T01:14:49;8.50;99.90
2497;DHT22;1259;48.306;14.374;2022-09-20T01:17:18;8.40;99.90
2497;DHT22;1259;48.306;14.374;2022-09-20T01:19:53;8.50;99.90
2497;DHT22;1259;48.306;14.374;2022-09-20T01:22:27;8.40;99.90
2497;DHT22;1259;48.306;14.374;2022-09-20T01:25:08;8.40;99.90
2497;DHT22;1259;48.306;14.374;2022-09-20T01:27:42;8.40;99.90
2497;DHT22;1259;48.306;14.374;2022-09-20T01:30:12;8.40;99.90
2497;DHT22;1259;48.306;14.374;2022-09-20T01:32:53;8.40;99.90
2497;DHT22;1259;48.306;14.374;2022-09-20T01:35:23;8.40;99.90
2497;DHT22;1259;48.306;14.374;2022-09-20T01:38:04;8.40;99.90
2497;DHT22;1259;48.306;14.374;2022-09-20T01:40:42;8.40;99.90
2497;DHT22;1259;48.306;14.374;2022-09-20T01:43:19;8.40;99.90
2497;DHT22;1259;48.306;14.374;2022-09-20T01:45:49;8.40;99.90
2497;DHT22;1259;48.306;14.374;2022-09-20T01:48:24;8.40;99.90
2497;DHT22;1259;48.306;14.374;2022-09-20T01:51:10;8.40;99.90
2497;DHT22;1259;48.306;14.374;2022-09-20T01:54:25;8.40;99.90
2497;DHT22;1259;48.306;14.374;2022-09-20T01:57:18;8.30;99.90
2497;DHT22;1259;48.306;14.374;2022-09-20T02:00:09;8.30;99.90
2497;DHT22;1259;48.306;14.374;2022-09-20T02:06:12;8.30;99.90
2497;DHT22;1259;48.306;14.374;2022-09-20T02:11:52;8.30;99.90
2497;DHT22;1259;48.306;14.374;2022-09-20T02:14:32;8.30;99.90
2497;DHT22;1259;48.306;14.374;2022-09-20T02:17:09;8.30;99.90
2497;DHT22;1259;48.306;14.374;2022-09-20T02:20:11;8.30;99.90
2497;DHT22;1259;48.306;14.374;2022-09-20T02:22:47;8.30;99.90
2497;DHT22;1259;48.306;14.374;2022-09-20T02:25:37;8.30;99.90
2497;DHT22;1259;48.306;14.374;2022-09-20T02:28:19;8.30;99.90
2497;DHT22;1259;48.306;14.374;2022-09-20T02:30:55;8.30;99.90
2497;DHT22;1259;48.306;14.374;2022-09-20T02:33:51;8.30;99.90
2497;DHT22;1259;48.306;14.374;2022-09-20T02:36:33;8.30;99.90
2497;DHT22;1259;48.306;14.374;2022-09-20T02:39:09;8.30;99.90
2497;DHT22;1259;48.306;14.374;2022-09-20T02:41:52;8.30;99.90
2497;DHT22;1259;48.306;14.374;2022-09-20T02:44:35;8.30;99.90
2497;DHT22;1259;48.306;14.374;2022-09-20T02:47:09;8.30;99.90
2497;DHT22;1259;48.306;14.374;2022-09-20T02:49:51;8.30;99.90
2497;DHT22;1259;48.306;14.374;2022-09-20T02:52:27;8.30;99.90
2497;DHT22;1259;48.306;14.374;2022-09-20T02:54:59;8.30;99.90
2497;DHT22;1259;48.306;14.374;2022-09-20T02:57:38;8.30;99.90
2497;DHT22;1259;48.306;14.374;2022-09-20T03:00:12;8.30;99.90
2497;DHT22;1259;48.306;14.374;2022-09-20T03:02:49;8.30;99.90
2497;DHT22;1259;48.306;14.374;2022-09-20T03:05:24;8.30;99.90
2497;DHT22;1259;48.306;14.374;2022-09-20T03:08:11;8.30;99.90
2497;DHT22;1259;48.306;14.374;2022-09-20T03:10:47;8.20;99.90
2497;DHT22;1259;48.306;14.374;2022-09-20T03:13:23;8.20;99.90
2497;DHT22;1259;48.306;14.374;2022-09-20T03:16:03;8.20;99.90
2497;DHT22;1259;48.306;14.374;2022-09-20T03:18:41;8.20;99.90
2497;DHT22;1259;48.306;14.374;2022-09-20T03:21:22;8.30;99.90
2497;DHT22;1259;48.306;14.374;2022-09-20T03:23:59;8.30;99.90
2497;DHT22;1259;48.306;14.374;2022-09-20T03:26:36;8.30;99.90
2497;DHT22;1259;48.306;14.374;2022-09-20T03:29:15;8.30;99.90
2497;DHT22;1259;48.306;14.374;2022-09-20T03:31:55;8.30;99.90
2497;DHT22;1259;48.306;14.374;2022-09-20T03:34:37;8.30;99.90
2497;DHT22;1259;48.306;14.374;2022-09-20T03:37:23;8.30;99.90
2497;DHT22;1259;48.306;14.374;2022-09-20T03:40:24;8.30;99.90
2497;DHT22;1259;48.306;14.374;2022-09-20T03:42:53;8.40;99.90
2497;DHT22;1259;48.306;14.374;2022-09-20T03:45:36;8.40;99.90
2497;DHT22;1259;48.306;14.374;2022-09-20T03:48:47;8.40;99.90
2497;DHT22;1259;48.306;14.374;2022-09-20T03:51:25;8.40;99.90
2497;DHT22;1259;48.306;14.374;2022-09-20T03:54:31;8.40;99.90
2497;DHT22;1259;48.306;14.374;2022-09-20T03:57:28;8.40;99.90
2497;DHT22;1259;48.306;14.374;2022-09-20T04:00:18;8.40;99.90
2497;DHT22;1259;48.306;14.374;2022-09-20T04:06:29;8.40;99.90
2497;DHT22;1259;48.306;14.374;2022-09-20T04:09:18;8.40;99.90
2497;DHT22;1259;48.306;14.374;2022-09-20T04:11:58;8.40;99.90
2497;DHT22;1259;48.306;14.374;2022-09-20T04:14:34;8.40;99.90
2497;DHT22;1259;48.306;14.374;2022-09-20T04:17:16;8.50;99.90
2497;DHT22;1259;48.306;14.374;2022-09-20T04:19:48;8.40;99.90
2497;DHT22;1259;48.306;14.374;2022-09-20T04:22:18;8.50;99.90
2497;DHT22;1259;48.306;14.374;2022-09-20T04:24:52;8.50;99.90
2497;DHT22;1259;48.306;14.374;2022-09-20T04:27:26;8.40;99.90
2497;DHT22;1259;48.306;14.374;2022-09-20T04:29:58;8.40;99.90
2497;DHT22;1259;48.306;14.374;2022-09-20T04:32:31;8.50;99.90
2497;DHT22;1259;48.306;14.374;2022-09-20T04:35:03;8.50;99.90
2497;DHT22;1259;48.306;14.374;2022-09-20T04:37:50;8.40;99.90
2497;DHT22;1259;48.306;14.374;2022-09-20T04:40:25;8.40;99.90
2497;DHT22;1259;48.306;14.374;2022-09-20T04:46:40;8.40;99.90
2497;DHT22;1259;48.306;14.374;2022-09-20T04:49:35;8.40;99.90
2497;DHT22;1259;48.306;14.374;2022-09-20T04:58:48;8.30;99.90
2497;DHT22;1259;48.306;14.374;2022-09-20T05:02:07;8.40;99.90
2497;DHT22;1259;48.306;14.374;2022-09-20T05:08:35;8.40;99.90
2497;DHT22;1259;48.306;14.374;2022-09-20T05:11:23;8.40;99.90
2497;DHT22;1259;48.306;14.374;2022-09-20T05:14:28;8.40;99.90
2497;DHT22;1259;48.306;14.374;2022-09-20T05:17:14;8.40;99.90
2497;DHT22;1259;48.306;14.374;2022-09-20T05:19:58;8.40;99.90
2497;DHT22;1259;48.306;14.374;2022-09-20T05:23:01;8.40;99.90
2497;DHT22;1259;48.306;14.374;2022-09-20T05:25:50;8.40;99.90
2497;DHT22;1259;48.306;14.374;2022-09-20T05:28:26;8.40;99.90
2497;DHT22;1259;48.306;14.374;2022-09-20T05:31:02;8.40;99.90
2497;DHT22;1259;48.306;14.374;2022-09-20T05:33:36;8.40;99.90
2497;DHT22;1259;48.306;14.374;2022-09-20T05:36:09;8.40;99.90
2497;DHT22;1259;48.306;14.374;2022-09-20T05:38:46;8.40;99.90
2497;DHT22;1259;48.306;14.374;2022-09-20T05:41:21;8.40;99.90
2497;DHT22;1259;48.306;14.374;2022-09-20T05:43:56;8.40;99.90
2497;DHT22;1259;48.306;14.374;2022-09-20T05:46:43;8.40;99.90
2497;DHT22;1259;48.306;14.374;2022-09-20T05:49:20;8.40;99.90
2497;DHT22;1259;48.306;14.374;2022-09-20T05:52:04;8.40;99.90
2497;DHT22;1259;48.306;14.374;2022-09-20T05:54:45;8.50;99.90
2497;DHT22;1259;48.306;14.374;2022-09-20T05:57:20;8.40;99.90
2497;DHT22;1259;48.306;14.374;2022-09-20T06:00:00;8.50;99.90
2497;DHT22;1259;48.306;14.374;2022-09-20T06:02:37;8.50;99.90
2497;DHT22;1259;48.306;14.374;2022-09-20T06:05:12;8.50;99.90
2497;DHT22;1259;48.306;14.374;2022-09-20T06:07:58;8.50;99.90
2497;DHT22;1259;48.306;14.374;2022-09-20T06:10:45;8.50;99.90
2497;DHT22;1259;48.306;14.374;2022-09-20T06:13:33;8.50;99.90
2497;DHT22;1259;48.306;14.374;2022-09-20T06:16:05;8.50;99.90
2497;DHT22;1259;48.306;14.374;2022-09-20T06:18:38;8.50;99.90
2497;DHT22;1259;48.306;14.374;2022-09-20T06:21:16;8.50;99.90
2497;DHT22;1259;48.306;14.374;2022-09-20T06:23:48;8.60;99.90
2497;DHT22;1259;48.306;14.374;2022-09-20T06:26:18;8.60;99.90
2497;DHT22;1259;48.306;14.374;2022-09-20T06:28:49;8.60;99.90
2497;DHT22;1259;48.306;14.374;2022-09-20T06:31:17;8.60;99.90
2497;DHT22;1259;48.306;14.374;2022-09-20T06:33:51;8.70;99.90
2497;DHT22;1259;48.306;14.374;2022-09-20T06:36:22;8.70;99.90
2497;DHT22;1259;48.306;14.374;2022-09-20T06:39:15;8.70;99.90
2497;DHT22;1259;48.306;14.374;2022-09-20T06:42:02;8.70;99.90
2497;DHT22;1259;48.306;14.374;2022-09-20T06:44:31;8.70;99.90
2497;DHT22;1259;48.306;14.374;2022-09-20T06:46:58;8.80;99.90
2497;DHT22;1259;48.306;14.374;2022-09-20T06:49:27;8.80;99.90
2497;DHT22;1259;48.306;14.374;2022-09-20T06:51:54;8.80;99.90
2497;DHT22;1259;48.306;14.374;2022-09-20T06:54:22;8.80;99.90
2497;DHT22;1259;48.306;14.374;2022-09-20T06:56:51;8.80;99.90
2497;DHT22;1259;48.306;14.374;2022-09-20T06:59:18;8.80;99.90
2497;DHT22;1259;48.306;14.374;2022-09-20T07:01:45;8.90;99.90
2497;DHT22;1259;48.306;14.374;2022-09-20T07:04:12;8.90;99.90
2497;DHT22;1259;48.306;14.374;2022-09-20T07:06:40;8.90;99.90
2497;DHT22;1259;48.306;14.374;2022-09-20T07:09:09;8.90;99.90
2497;DHT22;1259;48.306;14.374;2022-09-20T07:11:37;9.00;99.90
2497;DHT22;1259;48.306;14.374;2022-09-20T07:14:03;9.00;99.90
2497;DHT22;1259;48.306;14.374;2022-09-20T07:16:32;9.00;99.90
2497;DHT22;1259;48.306;14.374;2022-09-20T07:19:01;9.00;99.90
2497;DHT22;1259;48.306;14.374;2022-09-20T07:21:30;9.00;99.90
2497;DHT22;1259;48.306;14.374;2022-09-20T07:23:59;9.00;99.90
2497;DHT22;1259;48.306;14.374;2022-09-20T07:26:28;9.10;99.90
2497;DHT22;1259;48.306;14.374;2022-09-20T07:28:56;9.10;99.90
2497;DHT22;1259;48.306;14.374;2022-09-20T07:31:24;9.10;99.90
2497;DHT22;1259;48.306;14.374;2022-09-20T07:33:52;9.20;99.90
2497;DHT22;1259;48.306;14.374;2022-09-20T07:36:19;9.20;99.90
2497;DHT22;1259;48.306;14.374;2022-09-20T07:38:47;9.30;99.90
2497;DHT22;1259;48.306;14.374;2022-09-20T07:41:16;9.40;99.90
2497;DHT22;1259;48.306;14.374;2022-09-20T07:43:44;9.50;99.90
2497;DHT22;1259;48.306;14.374;2022-09-20T07:46:11;9.50;99.90
2497;DHT22;1259;48.306;14.374;2022-09-20T07:48:39;9.60;99.90
2497;DHT22;1259;48.306;14.374;2022-09-20T07:51:08;9.70;99.90
2497;DHT22;1259;48.306;14.374;2022-09-20T07:53:36;9.80;99.90
2497;DHT22;1259;48.306;14.374;2022-09-20T07:56:05;10.10;99.90
2497;DHT22;1259;48.306;14.374;2022-09-20T07:58:34;10.20;99.90
2497;DHT22;1259;48.306;14.374;2022-09-20T08:01:03;10.10;99.90
2497;DHT22;1259;48.306;14.374;2022-09-20T08:03:31;10.10;99.90
2497;DHT22;1259;48.306;14.374;2022-09-20T08:05:59;10.00;99.90
2497;DHT22;1259;48.306;14.374;2022-09-20T08:08:27;10.00;99.90
2497;DHT22;1259;48.306;14.374;2022-09-20T08:11:01;9.90;99.90
2497;DHT22;1259;48.306;14.374;2022-09-20T08:13:30;9.90;99.90
2497;DHT22;1259;48.306;14.374;2022-09-20T08:16:01;9.80;99.90
2497;DHT22;1259;48.306;14.374;2022-09-20T08:18:29;9.80;99.90
2497;DHT22;1259;48.306;14.374;2022-09-20T08:21:02;9.70;99.90
2497;DHT22;1259;48.306;14.374;2022-09-20T08:23:32;9.60;99.90
2497;DHT22;1259;48.306;14.374;2022-09-20T08:25:59;9.50;99.90
2497;DHT22;1259;48.306;14.374;2022-09-20T08:28:27;9.30;99.90
2497;DHT22;1259;48.306;14.374;2022-09-20T08:31:01;9.20;99.90
2497;DHT22;1259;48.306;14.374;2022-09-20T08:33:28;9.10;99.90
2497;DHT22;1259;48.306;14.374;2022-09-20T08:35:55;9.20;99.90
2497;DHT22;1259;48.306;14.374;2022-09-20T08:38:22;9.20;99.90
2497;DHT22;1259;48.306;14.374;2022-09-20T08:40:52;9.20;99.90
2497;DHT22;1259;48.306;14.374;2022-09-20T08:43:28;9.30;99.90
2497;DHT22;1259;48.306;14.374;2022-09-20T08:46:01;9.30;99.90
2497;DHT22;1259;48.306;14.374;2022-09-20T08:48:31;9.50;99.90
2497;DHT22;1259;48.306;14.374;2022-09-20T08:50:58;9.60;99.90
2497;DHT22;1259;48.306;14.374;2022-09-20T08:53:26;9.50;99.90
2497;DHT22;1259;48.306;14.374;2022-09-20T08:55:53;9.60;99.90
2497;DHT22;1259;48.306;14.374;2022-09-20T08:58:22;9.60;99.90
2497;DHT22;1259;48.306;14.374;2022-09-20T09:00:49;9.70;99.90
2497;DHT22;1259;48.306;14.374;2022-09-20T09:03:18;9.70;99.90
2497;DHT22;1259;48.306;14.374;2022-09-20T09:05:46;9.80;99.90
2497;DHT22;1259;48.306;14.374;2022-09-20T09:08:16;10.00;99.90
2497;DHT22;1259;48.306;14.374;2022-09-20T09:10:45;9.90;99.90
2497;DHT22;1259;48.306;14.374;2022-09-20T09:13:23;10.00;99.90
2497;DHT22;1259;48.306;14.374;2022-09-20T09:15:54;10.00;99.90
2497;DHT22;1259;48.306;14.374;2022-09-20T09:18:30;10.10;99.90
2497;DHT22;1259;48.306;14.374;2022-09-20T09:20:58;10.20;99.90
2497;DHT22;1259;48.306;14.374;2022-09-20T09:23:29;10.30;99.90
2497;DHT22;1259;48.306;14.374;2022-09-20T09:26:03;10.40;99.90
2497;DHT22;1259;48.306;14.374;2022-09-20T09:28:30;10.60;99.90
2497;DHT22;1259;48.306;14.374;2022-09-20T09:31:12;10.80;99.90
2497;DHT22;1259;48.306;14.374;2022-09-20T09:33:43;11.00;99.90
2497;DHT22;1259;48.306;14.374;2022-09-20T09:36:13;10.80;99.90
2497;DHT22;1259;48.306;14.374;2022-09-20T09:38:42;10.70;99.90
2497;DHT22;1259;48.306;14.374;2022-09-20T09:41:22;11.00;99.90
2497;DHT22;1259;48.306;14.374;2022-09-20T09:43:58;11.20;99.90
2497;DHT22;1259;48.306;14.374;2022-09-20T09:46:30;11.30;99.90
2497;DHT22;1259;48.306;14.374;2022-09-20T09:49:07;11.50;99.90
2497;DHT22;1259;48.306;14.374;2022-09-20T09:51:35;11.60;99.90
2497;DHT22;1259;48.306;14.374;2022-09-20T09:54:03;11.70;99.90
2497;DHT22;1259;48.306;14.374;2022-09-20T09:56:43;11.70;99.90
2497;DHT22;1259;48.306;14.374;2022-09-20T09:59:34;11.80;99.90
2497;DHT22;1259;48.306;14.374;2022-09-20T10:02:16;12.00;99.90
2497;DHT22;1259;48.306;14.374;2022-09-20T10:04:48;12.00;99.90
2497;DHT22;1259;48.306;14.374;2022-09-20T10:07:24;12.30;99.90
2497;DHT22;1259;48.306;14.374;2022-09-20T10:10:02;12.40;99.90
2497;DHT22;1259;48.306;14.374;2022-09-20T10:12:43;12.30;99.90
2497;DHT22;1259;48.306;14.374;2022-09-20T10:15:27;12.20;99.90
2497;DHT22;1259;48.306;14.374;2022-09-20T10:18:13;12.30;99.90
2497;DHT22;1259;48.306;14.374;2022-09-20T10:20:58;12.40;99.90
2497;DHT22;1259;48.306;14.374;2022-09-20T10:23:43;12.10;99.90
2497;DHT22;1259;48.306;14.374;2022-09-20T10:26:22;11.50;99.90
2497;DHT22;1259;48.306;14.374;2022-09-20T10:29:00;10.80;99.90
2497;DHT22;1259;48.306;14.374;2022-09-20T10:31:39;10.20;99.90
2497;DHT22;1259;48.306;14.374;2022-09-20T10:34:37;9.90;99.90
2497;DHT22;1259;48.306;14.374;2022-09-20T10:37:16;9.90;99.90
2497;DHT22;1259;48.306;14.374;2022-09-20T10:39:53;9.90;99.90
2497;DHT22;1259;48.306;14.374;2022-09-20T10:42:29;10.00;99.90
2497;DHT22;1259;48.306;14.374;2022-09-20T10:45:18;9.90;99.90
2497;DHT22;1259;48.306;14.374;2022-09-20T10:47:55;9.90;99.90
2497;DHT22;1259;48.306;14.374;2022-09-20T10:50:35;10.10;99.90
2497;DHT22;1259;48.306;14.374;2022-09-20T10:53:24;10.00;99.90
2497;DHT22;1259;48.306;14.374;2022-09-20T10:56:02;10.10;99.90
2497;DHT22;1259;48.306;14.374;2022-09-20T10:59:01;10.20;99.90
2497;DHT22;1259;48.306;14.374;2022-09-20T11:01:35;10.50;99.90
2497;DHT22;1259;48.306;14.374;2022-09-20T11:04:38;10.70;99.90
2497;DHT22;1259;48.306;14.374;2022-09-20T11:07:13;10.50;99.90
2497;DHT22;1259;48.306;14.374;2022-09-20T11:09:48;10.50;99.90
2497;DHT22;1259;48.306;14.374;2022-09-20T11:12:23;10.70;99.90
2497;DHT22;1259;48.306;14.374;2022-09-20T11:14:54;11.00;99.90
2497;DHT22;1259;48.306;14.374;2022-09-20T11:17:26;11.20;99.90
2497;DHT22;1259;48.306;14.374;2022-09-20T11:20:01;11.30;99.90
2497;DHT22;1259;48.306;14.374;2022-09-20T11:22:36;11.40;99.90
2497;DHT22;1259;48.306;14.374;2022-09-20T11:25:12;11.50;99.90
2497;DHT22;1259;48.306;14.374;2022-09-20T11:27:44;11.50;99.90
2497;DHT22;1259;48.306;14.374;2022-09-20T11:30:15;11.50;99.90
2497;DHT22;1259;48.306;14.374;2022-09-20T11:32:47;11.50;99.90
2497;DHT22;1259;48.306;14.374;2022-09-20T11:35:26;11.60;99.90
2497;DHT22;1259;48.306;14.374;2022-09-20T11:38:00;11.70;99.90
2497;DHT22;1259;48.306;14.374;2022-09-20T11:40:31;11.70;99.90
2497;DHT22;1259;48.306;14.374;2022-09-20T11:43:02;11.80;99.90
2497;DHT22;1259;48.306;14.374;2022-09-20T11:45:31;11.70;99.90
2497;DHT22;1259;48.306;14.374;2022-09-20T11:48:02;11.80;99.90
2497;DHT22;1259;48.306;14.374;2022-09-20T11:50:46;11.80;99.90
2497;DHT22;1259;48.306;14.374;2022-09-20T11:53:32;11.80;99.90
2497;DHT22;1259;48.306;14.374;2022-09-20T11:56:06;11.80;99.90
2497;DHT22;1259;48.306;14.374;2022-09-20T11:58:44;11.90;99.90
2497;DHT22;1259;48.306;14.374;2022-09-20T12:01:15;12.10;99.90
2497;DHT22;1259;48.306;14.374;2022-09-20T12:03:44;12.20;99.90
2497;DHT22;1259;48.306;14.374;2022-09-20T12:06:24;12.30;99.90
2497;DHT22;1259;48.306;14.374;2022-09-20T12:08:52;12.30;99.90
2497;DHT22;1259;48.306;14.374;2022-09-20T12:11:28;12.40;99.90
2497;DHT22;1259;48.306;14.374;2022-09-20T12:14:02;12.40;99.90
2497;DHT22;1259;48.306;14.374;2022-09-20T12:16:38;12.40;99.90
2497;DHT22;1259;48.306;14.374;2022-09-20T12:19:07;12.40;99.90
2497;DHT22;1259;48.306;14.374;2022-09-20T12:24:38;12.60;99.90
2497;DHT22;1259;48.306;14.374;2022-09-20T12:27:20;12.70;99.90
2497;DHT22;1259;48.306;14.374;2022-09-20T12:35:59;12.90;99.90
2497;DHT22;1259;48.306;14.374;2022-09-20T12:39:04;12.80;99.90
2497;DHT22;1259;48.306;14.374;2022-09-20T12:41:46;12.80;99.90
2497;DHT22;1259;48.306;14.374;2022-09-20T12:44:25;12.90;99.90
2497;DHT22;1259;48.306;14.374;2022-09-20T12:46:56;13.00;99.90
2497;DHT22;1259;48.306;14.374;2022-09-20T12:49:41;13.10;99.90
2497;DHT22;1259;48.306;14.374;2022-09-20T12:52:30;12.80;99.90
2497;DHT22;1259;48.306;14.374;2022-09-20T12:58:25;11.80;99.90
2497;DHT22;1259;48.306;14.374;2022-09-20T13:01:27;11.40;99.90
2497;DHT22;1259;48.306;14.374;2022-09-20T13:07:28;11.20;99.90
2497;DHT22;1259;48.306;14.374;2022-09-20T13:10:01;11.20;99.90
2497;DHT22;1259;48.306;14.374;2022-09-20T13:12:31;11.20;99.90
2497;DHT22;1259;48.306;14.374;2022-09-20T13:15:03;11.30;99.90
2497;DHT22;1259;48.306;14.374;2022-09-20T13:17:33;11.10;99.90
2497;DHT22;1259;48.306;14.374;2022-09-20T13:20:00;11.20;99.90
2497;DHT22;1259;48.306;14.374;2022-09-20T13:22:30;11.30;99.90
2497;DHT22;1259;48.306;14.374;2022-09-20T13:25:04;11.40;99.90
2497;DHT22;1259;48.306;14.374;2022-09-20T13:27:33;11.40;99.90
2497;DHT22;1259;48.306;14.374;2022-09-20T13:30:10;11.40;99.90
2497;DHT22;1259;48.306;14.374;2022-09-20T13:32:41;11.50;99.90
2497;DHT22;1259;48.306;14.374;2022-09-20T13:35:13;11.60;99.90
2497;DHT22;1259;48.306;14.374;2022-09-20T13:37:49;11.60;99.90
2497;DHT22;1259;48.306;14.374;2022-09-20T13:40:17;11.70;99.90
2497;DHT22;1259;48.306;14.374;2022-09-20T13:42:46;11.80;99.90
2497;DHT22;1259;48.306;14.374;2022-09-20T13:45:14;12.00;99.90
2497;DHT22;1259;48.306;14.374;2022-09-20T13:47:48;12.00;99.90
2497;DHT22;1259;48.306;14.374;2022-09-20T13:50:20;12.00;99.90
2497;DHT22;1259;48.306;14.374;2022-09-20T13:52:49;12.10;99.90
2497;DHT22;1259;48.306;14.374;2022-09-20T13:55:27;12.00;99.90
2497;DHT22;1259;48.306;14.374;2022-09-20T13:57:58;12.00;99.90
2497;DHT22;1259;48.306;14.374;2022-09-20T14:00:26;12.00;99.90
2497;DHT22;1259;48.306;14.374;2022-09-20T14:02:56;12.00;99.90
2497;DHT22;1259;48.306;14.374;2022-09-20T14:05:26;12.00;99.90
2497;DHT22;1259;48.306;14.374;2022-09-20T14:07:55;11.90;99.90
2497;DHT22;1259;48.306;14.374;2022-09-20T14:10:31;11.90;99.90
2497;DHT22;1259;48.306;14.374;2022-09-20T14:13:00;11.80;99.90
2497;DHT22;1259;48.306;14.374;2022-09-20T14:15:31;11.80;99.90
2497;DHT22;1259;48.306;14.374;2022-09-20T14:18:01;11.70;99.90
2497;DHT22;1259;48.306;14.374;2022-09-20T14:20:31;11.60;99.90
2497;DHT22;1259;48.306;14.374;2022-09-20T14:22:58;11.70;99.90
2497;DHT22;1259;48.306;14.374;2022-09-20T14:25:26;11.60;99.90
2497;DHT22;1259;48.306;14.374;2022-09-20T14:28:12;11.60;99.90
2497;DHT22;1259;48.306;14.374;2022-09-20T14:30:42;11.60;99.90
2497;DHT22;1259;48.306;14.374;2022-09-20T14:33:15;11.60;99.90
2497;DHT22;1259;48.306;14.374;2022-09-20T14:35:46;11.60;99.90
2497;DHT22;1259;48.306;14.374;2022-09-20T14:38:14;11.70;99.90
2497;DHT22;1259;48.306;14.374;2022-09-20T14:40:43;11.80;99.90
2497;DHT22;1259;48.306;14.374;2022-09-20T14:43:25;11.80;99.90
2497;DHT22;1259;48.306;14.374;2022-09-20T14:45:57;11.90;99.90
2497;DHT22;1259;48.306;14.374;2022-09-20T14:48:34;11.90;99.90
2497;DHT22;1259;48.306;14.374;2022-09-20T14:51:11;12.00;99.90
2497;DHT22;1259;48.306;14.374;2022-09-20T14:53:48;12.10;99.90
2497;DHT22;1259;48.306;14.374;2022-09-20T14:56:16;12.20;99.90
2497;DHT22;1259;48.306;14.374;2022-09-20T14:59:19;12.20;99.90
2497;DHT22;1259;48.306;14.374;2022-09-20T15:01:56;12.30;99.90
2497;DHT22;1259;48.306;14.374;2022-09-20T15:04:26;12.20;99.90
2497;DHT22;1259;48.306;14.374;2022-09-20T15:06:54;12.30;99.90
2497;DHT22;1259;48.306;14.374;2022-09-20T15:09:22;12.20;99.90
2497;DHT22;1259;48.306;14.374;2022-09-20T15:12:00;12.20;99.90
2497;DHT22;1259;48.306;14.374;2022-09-20T15:14:27;12.00;99.90
2497;DHT22;1259;48.306;14.374;2022-09-20T15:16:54;12.10;99.90
2497;DHT22;1259;48.306;14.374;2022-09-20T15:19:21;12.00;99.90
2497;DHT22;1259;48.306;14.374;2022-09-20T15:21:49;11.50;99.90
2497;DHT22;1259;48.306;14.374;2022-09-20T15:24:16;11.30;99.90
2497;DHT22;1259;48.306;14.374;2022-09-20T15:26:43;11.10;99.90
2497;DHT22;1259;48.306;14.374;2022-09-20T15:29:13;11.10;99.90
2497;DHT22;1259;48.306;14.374;2022-09-20T15:31:41;11.10;99.90
2497;DHT22;1259;48.306;14.374;2022-09-20T15:34:08;11.10;99.90
2497;DHT22;1259;48.306;14.374;2022-09-20T15:36:36;10.90;99.90
2497;DHT22;1259;48.306;14.374;2022-09-20T15:39:05;10.90;99.90
2497;DHT22;1259;48.306;14.374;2022-09-20T15:41:32;10.90;99.90
2497;DHT22;1259;48.306;14.374;2022-09-20T15:44:00;10.80;99.90
2497;DHT22;1259;48.306;14.374;2022-09-20T15:46:31;10.50;99.90
2497;DHT22;1259;48.306;14.374;2022-09-20T15:48:59;10.50;99.90
2497;DHT22;1259;48.306;14.374;2022-09-20T15:51:27;10.30;99.90
2497;DHT22;1259;48.306;14.374;2022-09-20T15:53:56;10.50;99.90
2497;DHT22;1259;48.306;14.374;2022-09-20T15:56:26;10.40;99.90
2497;DHT22;1259;48.306;14.374;2022-09-20T15:58:55;10.40;99.90
2497;DHT22;1259;48.306;14.374;2022-09-20T16:01:24;10.40;99.90
2497;DHT22;1259;48.306;14.374;2022-09-20T16:03:52;10.50;99.90
2497;DHT22;1259;48.306;14.374;2022-09-20T16:06:20;10.40;99.90
2497;DHT22;1259;48.306;14.374;2022-09-20T16:08:48;10.40;99.90
2497;DHT22;1259;48.306;14.374;2022-09-20T16:11:16;10.40;99.90
2497;DHT22;1259;48.306;14.374;2022-09-20T16:13:46;10.50;99.90
2497;DHT22;1259;48.306;14.374;2022-09-20T16:16:13;10.50;99.90
2497;DHT22;1259;48.306;14.374;2022-09-20T16:18:42;10.40;99.90
2497;DHT22;1259;48.306;14.374;2022-09-20T16:21:26;10.50;99.90
2497;DHT22;1259;48.306;14.374;2022-09-20T16:23:55;10.40;99.90
2497;DHT22;1259;48.306;14.374;2022-09-20T16:26:23;10.30;99.90
2497;DHT22;1259;48.306;14.374;2022-09-20T16:28:52;10.30;99.90
2497;DHT22;1259;48.306;14.374;2022-09-20T16:31:28;10.30;99.90
2497;DHT22;1259;48.306;14.374;2022-09-20T16:33:55;10.20;99.90
2497;DHT22;1259;48.306;14.374;2022-09-20T16:36:22;10.30;99.90
2497;DHT22;1259;48.306;14.374;2022-09-20T16:38:50;10.20;99.90
2497;DHT22;1259;48.306;14.374;2022-09-20T16:41:20;10.10;99.90
2497;DHT22;1259;48.306;14.374;2022-09-20T16:43:47;10.10;99.90
2497;DHT22;1259;48.306;14.374;2022-09-20T16:46:18;10.10;99.90
2497;DHT22;1259;48.306;14.374;2022-09-20T16:48:45;10.10;99.90
2497;DHT22;1259;48.306;14.374;2022-09-20T16:51:14;10.10;99.90
2497;DHT22;1259;48.306;14.374;2022-09-20T16:53:41;10.10;99.90
2497;DHT22;1259;48.306;14.374;2022-09-20T16:56:17;10.10;99.90
2497;DHT22;1259;48.306;14.374;2022-09-20T16:58:44;10.00;99.90
2497;DHT22;1259;48.306;14.374;2022-09-20T17:01:11;10.00;99.90
2497;DHT22;1259;48.306;14.374;2022-09-20T17:03:40;9.90;99.90
2497;DHT22;1259;48.306;14.374;2022-09-20T17:06:07;9.80;99.90
2497;DHT22;1259;48.306;14.374;2022-09-20T17:08:34;9.80;99.90
2497;DHT22;1259;48.306;14.374;2022-09-20T17:11:05;9.80;99.90
2497;DHT22;1259;48.306;14.374;2022-09-20T17:13:34;9.80;99.90
2497;DHT22;1259;48.306;14.374;2022-09-20T17:16:02;9.70;99.90
2497;DHT22;1259;48.306;14.374;2022-09-20T17:18:29;9.70;99.90
2497;DHT22;1259;48.306;14.374;2022-09-20T17:21:03;9.60;99.90
2497;DHT22;1259;48.306;14.374;2022-09-20T17:23:31;9.60;99.90